sensor_id;sensor_type;location;lat;lon;timestamp;temperature;humidity
39865;DHT22;25538;48.392;9.976;2022-08-19T00:01:37;18.30;99.90
39865;DHT22;25538;48.392;9.976;2022-08-19T00:04:06;18.40;99.90
39865;DHT22;25538;48.392;9.976;2022-08-19T00:06:34;18.60;99.90
39865;DHT22;25538;48.392;9.976;2022-08-19T00:09:01;18.60;99.90
39865;DHT22;25538;48.392;9.976;2022-08-19T00:11:28;18.70;99.90
39865;DHT22;25538;48.392;9.976;2022-08-19T00:13:55;18.80;99.90
39865;DHT22;25538;48.392;9.976;2022-08-19T00:16:24;18.70;99.90
39865;DHT22;25538;48.392;9.976;2022-08-19T00:18:50;18.80;99.90
39865;DHT22;25538;48.392;9.976;2022-08-19T00:21:16;18.70;99.90
39865;DHT22;25538;48.392;9.976;2022-08-19T00:23:42;18.70;99.90
39865;DHT22;25538;48.392;9.976;2022-08-19T00:26:10;18.70;99.90
39865;DHT22;25538;48.392;9.976;2022-08-19T00:28:36;18.50;99.90
39865;DHT22;25538;48.392;9.976;2022-08-19T00:31:04;18.60;99.90
39865;DHT22;25538;48.392;9.976;2022-08-19T00:33:31;18.60;99.90
39865;DHT22;25538;48.392;9.976;2022-08-19T00:35:59;18.50;99.90
39865;DHT22;25538;48.392;9.976;2022-08-19T00:38:25;18.60;99.90
39865;DHT22;25538;48.392;9.976;2022-08-19T00:40:52;18.60;99.90
39865;DHT22;25538;48.392;9.976;2022-08-19T00:43:20;18.70;99.90
39865;DHT22;25538;48.392;9.976;2022-08-19T00:45:47;18.70;99.90
39865;DHT22;25538;48.392;9.976;2022-08-19T00:48:14;18.70;99.90
39865;DHT22;25538;48.392;9.976;2022-08-19T00:50:41;18.60;99.90
39865;DHT22;25538;48.392;9.976;2022-08-19T00:53:10;18.60;99.90
39865;DHT22;25538;48.392;9.976;2022-08-19T00:55:38;18.60;99.90
39865;DHT22;25538;48.392;9.976;2022-08-19T00:58:12;18.50;99.90
39865;DHT22;25538;48.392;9.976;2022-08-19T01:00:39;18.50;99.90
39865;DHT22;25538;48.392;9.976;2022-08-19T01:03:08;18.30;99.90
39865;DHT22;25538;48.392;9.976;2022-08-19T01:05:35;18.20;99.90
39865;DHT22;25538;48.392;9.976;2022-08-19T01:08:03;18.20;99.90
39865;DHT22;25538;48.392;9.976;2022-08-19T01:10:33;18.20;99.90
39865;DHT22;25538;48.392;9.976;2022-08-19T01:13:02;18.20;99.90
39865;DHT22;25538;48.392;9.976;2022-08-19T01:15:45;18.40;99.90
39865;DHT22;25538;48.392;9.976;2022-08-19T01:18:14;18.30;99.90
39865;DHT22;25538;48.392;9.976;2022-08-19T01:20:41;18.40;99.90
39865;DHT22;25538;48.392;9.976;2022-08-19T01:23:08;18.30;99.90
39865;DHT22;25538;48.392;9.976;2022-08-19T01:25:52;18.40;99.90
39865;DHT22;25538;48.392;9.976;2022-08-19T01:28:25;18.40;99.90
39865;DHT22;25538;48.392;9.976;2022-08-19T01:30:53;18.40;99.90
39865;DHT22;25538;48.392;9.976;2022-08-19T01:33:20;18.40;99.90
39865;DHT22;25538;48.392;9.976;2022-08-19T01:35:46;18.30;99.90
39865;DHT22;25538;48.392;9.976;2022-08-19T01:38:26;18.40;99.90
39865;DHT22;25538;48.392;9.976;2022-08-19T01:40:52;18.40;99.90
39865;DHT22;25538;48.392;9.976;2022-08-19T01:43:19;18.30;99.90
39865;DHT22;25538;48.392;9.976;2022-08-19T01:45:46;18.20;99.90
39865;DHT22;25538;48.392;9.976;2022-08-19T01:48:13;18.30;99.90
39865;DHT22;25538;48.392;9.976;2022-08-19T01:50:39;18.30;99.90
39865;DHT22;25538;48.392;9.976;2022-08-19T01:53:09;18.30;99.90
39865;DHT22;25538;48.392;9.976;2022-08-19T01:55:38;18.20;99.90
39865;DHT22;25538;48.392;9.976;2022-08-19T01:58:06;18.20;99.90
39865;DHT22;25538;48.392;9.976;2022-08-19T02:00:33;18.30;99.90
39865;DHT22;25538;48.392;9.976;2022-08-19T02:03:00;18.20;99.90
39865;DHT22;25538;48.392;9.976;2022-08-19T02:05:27;18.20;99.90
39865;DHT22;25538;48.392;9.976;2022-08-19T02:07:56;18.20;99.90
39865;DHT22;25538;48.392;9.976;2022-08-19T02:10:22;18.20;99.90
39865;DHT22;25538;48.392;9.976;2022-08-19T02:12:49;18.20;99.90
39865;DHT22;25538;48.392;9.976;2022-08-19T02:15:16;18.20;99.90
39865;DHT22;25538;48.392;9.976;2022-08-19T02:17:43;18.10;99.90
39865;DHT22;25538;48.392;9.976;2022-08-19T02:20:09;18.10;99.90
39865;DHT22;25538;48.392;9.976;2022-08-19T02:22:35;18.10;99.90
39865;DHT22;25538;48.392;9.976;2022-08-19T02:25:02;18.00;99.90
39865;DHT22;25538;48.392;9.976;2022-08-19T02:27:29;18.00;99.90
39865;DHT22;25538;48.392;9.976;2022-08-19T02:29:56;18.10;99.90
39865;DHT22;25538;48.392;9.976;2022-08-19T02:32:22;18.10;99.90
39865;DHT22;25538;48.392;9.976;2022-08-19T02:34:48;18.10;99.90
39865;DHT22;25538;48.392;9.976;2022-08-19T02:37:14;18.20;99.90
39865;DHT22;25538;48.392;9.976;2022-08-19T02:39:59;18.30;99.90
39865;DHT22;25538;48.392;9.976;2022-08-19T02:42:25;18.30;99.90
39865;DHT22;25538;48.392;9.976;2022-08-19T02:44:51;18.20;99.90
39865;DHT22;25538;48.392;9.976;2022-08-19T02:47:18;18.30;99.90
39865;DHT22;25538;48.392;9.976;2022-08-19T02:49:45;18.10;99.90
39865;DHT22;25538;48.392;9.976;2022-08-19T02:52:11;18.10;99.90
39865;DHT22;25538;48.392;9.976;2022-08-19T02:54:38;18.10;99.90
39865;DHT22;25538;48.392;9.976;2022-08-19T02:57:04;18.10;99.90
39865;DHT22;25538;48.392;9.976;2022-08-19T02:59:31;18.00;99.90
39865;DHT22;25538;48.392;9.976;2022-08-19T03:01:57;17.90;99.90
39865;DHT22;25538;48.392;9.976;2022-08-19T03:04:24;18.00;99.90
39865;DHT22;25538;48.392;9.976;2022-08-19T03:06:50;18.00;99.90
39865;DHT22;25538;48.392;9.976;2022-08-19T03:09:18;18.00;99.90
39865;DHT22;25538;48.392;9.976;2022-08-19T03:11:44;18.00;99.90
39865;DHT22;25538;48.392;9.976;2022-08-19T03:14:10;18.10;99.90
39865;DHT22;25538;48.392;9.976;2022-08-19T03:16:48;18.00;99.90
39865;DHT22;25538;48.392;9.976;2022-08-19T03:19:17;18.00;99.90
39865;DHT22;25538;48.392;9.976;2022-08-19T03:21:44;18.00;99.90
39865;DHT22;25538;48.392;9.976;2022-08-19T03:24:10;18.00;99.90
39865;DHT22;25538;48.392;9.976;2022-08-19T03:26:42;18.00;99.90
39865;DHT22;25538;48.392;9.976;2022-08-19T03:29:08;18.00;99.90
39865;DHT22;25538;48.392;9.976;2022-08-19T03:31:37;17.90;99.90
39865;DHT22;25538;48.392;9.976;2022-08-19T03:34:03;17.90;99.90
39865;DHT22;25538;48.392;9.976;2022-08-19T03:36:29;17.90;99.90
39865;DHT22;25538;48.392;9.976;2022-08-19T03:38:59;17.90;99.90
39865;DHT22;25538;48.392;9.976;2022-08-19T03:41:31;17.90;99.90
39865;DHT22;25538;48.392;9.976;2022-08-19T03:43:58;18.00;99.90
39865;DHT22;25538;48.392;9.976;2022-08-19T03:46:27;18.00;99.90
39865;DHT22;25538;48.392;9.976;2022-08-19T03:48:56;18.10;99.90
39865;DHT22;25538;48.392;9.976;2022-08-19T03:53:48;18.20;99.90
39865;DHT22;25538;48.392;9.976;2022-08-19T03:56:15;18.10;99.90
39865;DHT22;25538;48.392;9.976;2022-08-19T03:58:41;18.10;99.90
39865;DHT22;25538;48.392;9.976;2022-08-19T04:01:17;18.10;99.90
39865;DHT22;25538;48.392;9.976;2022-08-19T04:03:44;18.00;99.90
39865;DHT22;25538;48.392;9.976;2022-08-19T04:08:42;18.10;99.90
39865;DHT22;25538;48.392;9.976;2022-08-19T04:11:11;18.20;99.90
39865;DHT22;25538;48.392;9.976;2022-08-19T04:13:37;18.20;99.90
39865;DHT22;25538;48.392;9.976;2022-08-19T04:16:05;18.20;99.90
39865;DHT22;25538;48.392;9.976;2022-08-19T04:18:31;18.20;99.90
39865;DHT22;25538;48.392;9.976;2022-08-19T04:20:58;18.10;99.90
39865;DHT22;25538;48.392;9.976;2022-08-19T04:23:24;18.10;99.90
39865;DHT22;25538;48.392;9.976;2022-08-19T04:25:50;18.10;99.90
39865;DHT22;25538;48.392;9.976;2022-08-19T04:28:16;18.10;99.90
39865;DHT22;25538;48.392;9.976;2022-08-19T04:30:48;18.10;99.90
39865;DHT22;25538;48.392;9.976;2022-08-19T04:33:16;18.10;99.90
39865;DHT22;25538;48.392;9.976;2022-08-19T04:35:46;18.10;99.90
39865;DHT22;25538;48.392;9.976;2022-08-19T04:38:14;18.10;99.90
39865;DHT22;25538;48.392;9.976;2022-08-19T04:40:45;18.10;99.90
39865;DHT22;25538;48.392;9.976;2022-08-19T04:43:31;18.10;99.90
39865;DHT22;25538;48.392;9.976;2022-08-19T04:45:57;18.10;99.90
39865;DHT22;25538;48.392;9.976;2022-08-19T04:48:24;18.10;99.90
39865;DHT22;25538;48.392;9.976;2022-08-19T04:50:54;18.20;99.90
39865;DHT22;25538;48.392;9.976;2022-08-19T04:53:27;18.20;99.90
39865;DHT22;25538;48.392;9.976;2022-08-19T04:55:55;18.30;99.90
39865;DHT22;25538;48.392;9.976;2022-08-19T04:58:23;18.40;99.90
39865;DHT22;25538;48.392;9.976;2022-08-19T05:00:49;18.30;99.90
39865;DHT22;25538;48.392;9.976;2022-08-19T05:03:15;18.20;99.90
39865;DHT22;25538;48.392;9.976;2022-08-19T05:05:43;18.20;99.90
39865;DHT22;25538;48.392;9.976;2022-08-19T05:08:11;18.20;99.90
39865;DHT22;25538;48.392;9.976;2022-08-19T05:10:38;18.20;99.90
39865;DHT22;25538;48.392;9.976;2022-08-19T05:13:05;18.10;99.90
39865;DHT22;25538;48.392;9.976;2022-08-19T05:15:31;18.10;99.90
39865;DHT22;25538;48.392;9.976;2022-08-19T05:17:57;18.10;99.90
39865;DHT22;25538;48.392;9.976;2022-08-19T05:20:42;18.20;99.90
39865;DHT22;25538;48.392;9.976;2022-08-19T05:23:26;18.10;99.90
39865;DHT22;25538;48.392;9.976;2022-08-19T05:25:52;17.90;99.90
39865;DHT22;25538;48.392;9.976;2022-08-19T05:28:19;17.90;99.90
39865;DHT22;25538;48.392;9.976;2022-08-19T05:30:46;17.80;99.90
39865;DHT22;25538;48.392;9.976;2022-08-19T05:33:13;17.80;99.90
39865;DHT22;25538;48.392;9.976;2022-08-19T05:35:40;17.60;99.90
39865;DHT22;25538;48.392;9.976;2022-08-19T05:38:07;17.60;99.90
39865;DHT22;25538;48.392;9.976;2022-08-19T05:40:35;17.60;99.90
39865;DHT22;25538;48.392;9.976;2022-08-19T05:43:05;17.60;99.90
39865;DHT22;25538;48.392;9.976;2022-08-19T05:45:32;17.70;99.90
39865;DHT22;25538;48.392;9.976;2022-08-19T05:48:04;17.80;99.90
39865;DHT22;25538;48.392;9.976;2022-08-19T05:50:30;17.80;99.90
39865;DHT22;25538;48.392;9.976;2022-08-19T05:52:56;17.90;99.90
39865;DHT22;25538;48.392;9.976;2022-08-19T05:55:22;17.90;99.90
39865;DHT22;25538;48.392;9.976;2022-08-19T05:57:48;18.00;99.90
39865;DHT22;25538;48.392;9.976;2022-08-19T06:00:14;18.00;99.90
39865;DHT22;25538;48.392;9.976;2022-08-19T06:02:41;18.10;99.90
39865;DHT22;25538;48.392;9.976;2022-08-19T06:05:07;18.10;99.90
39865;DHT22;25538;48.392;9.976;2022-08-19T06:07:36;18.10;99.90
39865;DHT22;25538;48.392;9.976;2022-08-19T06:10:04;18.00;99.90
39865;DHT22;25538;48.392;9.976;2022-08-19T06:12:32;18.10;99.90
39865;DHT22;25538;48.392;9.976;2022-08-19T06:15:18;18.10;99.90
39865;DHT22;25538;48.392;9.976;2022-08-19T06:17:44;18.20;99.90
39865;DHT22;25538;48.392;9.976;2022-08-19T06:20:13;18.20;99.90
39865;DHT22;25538;48.392;9.976;2022-08-19T06:22:41;18.30;99.90
39865;DHT22;25538;48.392;9.976;2022-08-19T06:25:07;18.20;99.90
39865;DHT22;25538;48.392;9.976;2022-08-19T06:27:35;18.20;99.90
39865;DHT22;25538;48.392;9.976;2022-08-19T06:30:03;18.20;99.90
39865;DHT22;25538;48.392;9.976;2022-08-19T06:32:29;18.10;99.90
39865;DHT22;25538;48.392;9.976;2022-08-19T06:34:55;18.10;99.90
39865;DHT22;25538;48.392;9.976;2022-08-19T06:37:21;18.00;99.90
39865;DHT22;25538;48.392;9.976;2022-08-19T06:39:48;18.20;99.90
39865;DHT22;25538;48.392;9.976;2022-08-19T06:42:15;18.20;99.90
39865;DHT22;25538;48.392;9.976;2022-08-19T06:44:46;18.20;99.90
39865;DHT22;25538;48.392;9.976;2022-08-19T06:47:17;18.30;99.90
39865;DHT22;25538;48.392;9.976;2022-08-19T06:49:44;18.30;99.90
39865;DHT22;25538;48.392;9.976;2022-08-19T06:52:10;18.40;99.90
39865;DHT22;25538;48.392;9.976;2022-08-19T06:54:40;18.40;99.90
39865;DHT22;25538;48.392;9.976;2022-08-19T06:57:08;18.40;99.90
39865;DHT22;25538;48.392;9.976;2022-08-19T06:59:39;18.40;99.90
39865;DHT22;25538;48.392;9.976;2022-08-19T07:02:05;18.40;99.90
39865;DHT22;25538;48.392;9.976;2022-08-19T07:04:33;18.30;99.90
39865;DHT22;25538;48.392;9.976;2022-08-19T07:07:05;18.40;99.90
39865;DHT22;25538;48.392;9.976;2022-08-19T07:09:34;18.40;99.90
39865;DHT22;25538;48.392;9.976;2022-08-19T07:12:04;18.40;99.90
39865;DHT22;25538;48.392;9.976;2022-08-19T07:14:33;18.40;99.90
39865;DHT22;25538;48.392;9.976;2022-08-19T07:17:04;18.30;99.90
39865;DHT22;25538;48.392;9.976;2022-08-19T07:19:31;18.30;99.90
39865;DHT22;25538;48.392;9.976;2022-08-19T07:21:58;18.30;99.90
39865;DHT22;25538;48.392;9.976;2022-08-19T07:24:27;18.30;99.90
39865;DHT22;25538;48.392;9.976;2022-08-19T07:26:56;18.30;99.90
39865;DHT22;25538;48.392;9.976;2022-08-19T07:29:26;18.30;99.90
39865;DHT22;25538;48.392;9.976;2022-08-19T07:31:54;18.30;99.90
39865;DHT22;25538;48.392;9.976;2022-08-19T07:34:25;18.20;99.90
39865;DHT22;25538;48.392;9.976;2022-08-19T07:36:52;18.20;99.90
39865;DHT22;25538;48.392;9.976;2022-08-19T07:39:25;18.20;99.90
39865;DHT22;25538;48.392;9.976;2022-08-19T07:41:51;18.20;99.90
39865;DHT22;25538;48.392;9.976;2022-08-19T07:44:18;18.20;99.90
39865;DHT22;25538;48.392;9.976;2022-08-19T07:46:49;18.20;99.90
39865;DHT22;25538;48.392;9.976;2022-08-19T07:49:17;18.20;99.90
39865;DHT22;25538;48.392;9.976;2022-08-19T07:51:47;18.30;99.90
39865;DHT22;25538;48.392;9.976;2022-08-19T07:54:13;18.30;99.90
39865;DHT22;25538;48.392;9.976;2022-08-19T07:56:39;18.30;99.90
39865;DHT22;25538;48.392;9.976;2022-08-19T07:59:05;18.20;99.90
39865;DHT22;25538;48.392;9.976;2022-08-19T08:01:32;18.20;99.90
39865;DHT22;25538;48.392;9.976;2022-08-19T08:03:58;18.20;99.90
39865;DHT22;25538;48.392;9.976;2022-08-19T08:06:43;18.30;99.90
39865;DHT22;25538;48.392;9.976;2022-08-19T08:09:35;18.40;99.90
39865;DHT22;25538;48.392;9.976;2022-08-19T08:12:07;18.30;99.90
39865;DHT22;25538;48.392;9.976;2022-08-19T08:14:42;18.40;99.90
39865;DHT22;25538;48.392;9.976;2022-08-19T08:17:10;18.40;99.90
39865;DHT22;25538;48.392;9.976;2022-08-19T08:19:36;18.40;99.90
39865;DHT22;25538;48.392;9.976;2022-08-19T08:22:03;18.30;99.90
39865;DHT22;25538;48.392;9.976;2022-08-19T08:24:31;18.30;99.90
39865;DHT22;25538;48.392;9.976;2022-08-19T08:26:59;18.30;99.90
39865;DHT22;25538;48.392;9.976;2022-08-19T08:29:27;18.30;99.90
39865;DHT22;25538;48.392;9.976;2022-08-19T08:31:53;18.30;99.90
39865;DHT22;25538;48.392;9.976;2022-08-19T08:34:19;18.20;99.90
39865;DHT22;25538;48.392;9.976;2022-08-19T08:36:46;18.20;99.90
39865;DHT22;25538;48.392;9.976;2022-08-19T08:39:19;18.20;99.90
39865;DHT22;25538;48.392;9.976;2022-08-19T08:42:16;18.20;99.90
39865;DHT22;25538;48.392;9.976;2022-08-19T08:44:59;18.00;99.90
39865;DHT22;25538;48.392;9.976;2022-08-19T08:47:30;18.10;99.90
39865;DHT22;25538;48.392;9.976;2022-08-19T08:50:04;18.10;99.90
39865;DHT22;25538;48.392;9.976;2022-08-19T08:52:34;18.20;99.90
39865;DHT22;25538;48.392;9.976;2022-08-19T08:55:08;18.10;99.90
39865;DHT22;25538;48.392;9.976;2022-08-19T09:00:33;18.00;99.90
39865;DHT22;25538;48.392;9.976;2022-08-19T09:03:00;18.00;99.90
39865;DHT22;25538;48.392;9.976;2022-08-19T09:08:42;18.10;99.90
39865;DHT22;25538;48.392;9.976;2022-08-19T09:11:18;18.20;99.90
39865;DHT22;25538;48.392;9.976;2022-08-19T09:16:49;18.20;99.90
39865;DHT22;25538;48.392;9.976;2022-08-19T09:19:16;18.40;99.90
39865;DHT22;25538;48.392;9.976;2022-08-19T09:21:43;18.40;99.90
39865;DHT22;25538;48.392;9.976;2022-08-19T09:24:09;18.50;99.90
39865;DHT22;25538;48.392;9.976;2022-08-19T09:26:35;18.50;99.90
39865;DHT22;25538;48.392;9.976;2022-08-19T09:29:01;18.50;99.90
39865;DHT22;25538;48.392;9.976;2022-08-19T09:31:31;18.50;99.90
39865;DHT22;25538;48.392;9.976;2022-08-19T09:33:59;18.50;99.90
39865;DHT22;25538;48.392;9.976;2022-08-19T09:36:27;18.50;99.90
39865;DHT22;25538;48.392;9.976;2022-08-19T09:38:55;18.50;99.90
39865;DHT22;25538;48.392;9.976;2022-08-19T09:41:24;18.50;99.90
39865;DHT22;25538;48.392;9.976;2022-08-19T09:43:52;18.60;99.90
39865;DHT22;25538;48.392;9.976;2022-08-19T09:46:23;18.60;99.90
39865;DHT22;25538;48.392;9.976;2022-08-19T09:48:50;18.70;99.90
39865;DHT22;25538;48.392;9.976;2022-08-19T09:51:21;18.70;99.90
39865;DHT22;25538;48.392;9.976;2022-08-19T09:53:48;18.70;99.90
39865;DHT22;25538;48.392;9.976;2022-08-19T09:56:20;18.70;99.90
39865;DHT22;25538;48.392;9.976;2022-08-19T09:58:47;18.80;99.90
39865;DHT22;25538;48.392;9.976;2022-08-19T10:01:22;18.80;99.90
39865;DHT22;25538;48.392;9.976;2022-08-19T10:03:50;18.80;99.90
39865;DHT22;25538;48.392;9.976;2022-08-19T10:06:18;18.80;99.90
39865;DHT22;25538;48.392;9.976;2022-08-19T10:08:45;18.80;99.90
39865;DHT22;25538;48.392;9.976;2022-08-19T10:11:12;18.80;99.90
39865;DHT22;25538;48.392;9.976;2022-08-19T10:13:40;18.80;99.90
39865;DHT22;25538;48.392;9.976;2022-08-19T10:16:09;18.80;99.90
39865;DHT22;25538;48.392;9.976;2022-08-19T10:18:38;18.80;99.90
39865;DHT22;25538;48.392;9.976;2022-08-19T10:23:36;18.90;99.90
39865;DHT22;25538;48.392;9.976;2022-08-19T10:26:04;18.90;99.90
39865;DHT22;25538;48.392;9.976;2022-08-19T10:28:35;18.90;99.90
39865;DHT22;25538;48.392;9.976;2022-08-19T10:31:06;18.80;99.90
39865;DHT22;25538;48.392;9.976;2022-08-19T10:33:34;18.80;99.90
39865;DHT22;25538;48.392;9.976;2022-08-19T10:36:03;18.90;99.90
39865;DHT22;25538;48.392;9.976;2022-08-19T10:38:29;18.90;99.90
39865;DHT22;25538;48.392;9.976;2022-08-19T10:40:55;19.00;99.90
39865;DHT22;25538;48.392;9.976;2022-08-19T10:43:21;19.00;99.90
39865;DHT22;25538;48.392;9.976;2022-08-19T10:45:54;19.00;99.90
39865;DHT22;25538;48.392;9.976;2022-08-19T10:48:25;19.00;99.90
39865;DHT22;25538;48.392;9.976;2022-08-19T10:50:51;19.00;99.90
39865;DHT22;25538;48.392;9.976;2022-08-19T10:53:35;19.00;99.90
39865;DHT22;25538;48.392;9.976;2022-08-19T10:56:01;19.00;99.90
39865;DHT22;25538;48.392;9.976;2022-08-19T10:58:46;18.70;99.90
39865;DHT22;25538;48.392;9.976;2022-08-19T11:01:12;18.50;99.90
39865;DHT22;25538;48.392;9.976;2022-08-19T11:03:38;18.50;99.90
39865;DHT22;25538;48.392;9.976;2022-08-19T11:06:07;18.50;99.90
39865;DHT22;25538;48.392;9.976;2022-08-19T11:08:35;18.50;99.90
39865;DHT22;25538;48.392;9.976;2022-08-19T11:11:04;18.50;99.90
39865;DHT22;25538;48.392;9.976;2022-08-19T11:13:32;18.30;99.90
39865;DHT22;25538;48.392;9.976;2022-08-19T11:16:02;18.20;99.90
39865;DHT22;25538;48.392;9.976;2022-08-19T11:18:28;18.10;99.90
39865;DHT22;25538;48.392;9.976;2022-08-19T11:20:54;18.10;99.90
39865;DHT22;25538;48.392;9.976;2022-08-19T11:23:20;18.10;99.90
39865;DHT22;25538;48.392;9.976;2022-08-19T11:25:46;18.00;99.90
39865;DHT22;25538;48.392;9.976;2022-08-19T11:28:12;17.90;99.90
39865;DHT22;25538;48.392;9.976;2022-08-19T11:30:39;17.80;99.90
39865;DHT22;25538;48.392;9.976;2022-08-19T11:33:05;17.70;99.90
39865;DHT22;25538;48.392;9.976;2022-08-19T11:35:31;17.70;99.90
39865;DHT22;25538;48.392;9.976;2022-08-19T11:37:58;17.70;99.90
39865;DHT22;25538;48.392;9.976;2022-08-19T11:40:25;17.50;99.90
39865;DHT22;25538;48.392;9.976;2022-08-19T11:42:51;17.50;99.90
39865;DHT22;25538;48.392;9.976;2022-08-19T11:45:25;17.50;99.90
39865;DHT22;25538;48.392;9.976;2022-08-19T11:47:52;17.50;99.90
39865;DHT22;25538;48.392;9.976;2022-08-19T11:50:18;17.40;99.90
39865;DHT22;25538;48.392;9.976;2022-08-19T11:52:45;17.30;99.90
39865;DHT22;25538;48.392;9.976;2022-08-19T11:55:12;17.40;99.90
39865;DHT22;25538;48.392;9.976;2022-08-19T11:57:39;17.50;99.90
39865;DHT22;25538;48.392;9.976;2022-08-19T12:00:07;17.50;99.90
39865;DHT22;25538;48.392;9.976;2022-08-19T12:02:35;17.60;99.90
39865;DHT22;25538;48.392;9.976;2022-08-19T12:05:00;17.60;99.90
39865;DHT22;25538;48.392;9.976;2022-08-19T12:07:29;17.70;99.90
39865;DHT22;25538;48.392;9.976;2022-08-19T12:09:59;17.70;99.90
39865;DHT22;25538;48.392;9.976;2022-08-19T12:12:25;17.70;99.90
39865;DHT22;25538;48.392;9.976;2022-08-19T12:14:52;17.70;99.90
39865;DHT22;25538;48.392;9.976;2022-08-19T12:17:31;17.70;99.90
39865;DHT22;25538;48.392;9.976;2022-08-19T12:19:56;17.70;99.90
39865;DHT22;25538;48.392;9.976;2022-08-19T12:22:22;17.70;99.90
39865;DHT22;25538;48.392;9.976;2022-08-19T12:24:48;17.70;99.90
39865;DHT22;25538;48.392;9.976;2022-08-19T12:27:16;17.60;99.90
39865;DHT22;25538;48.392;9.976;2022-08-19T12:29:42;17.60;99.90
39865;DHT22;25538;48.392;9.976;2022-08-19T12:32:08;17.70;99.90
39865;DHT22;25538;48.392;9.976;2022-08-19T12:34:35;17.70;99.90
39865;DHT22;25538;48.392;9.976;2022-08-19T12:37:04;17.70;99.90
39865;DHT22;25538;48.392;9.976;2022-08-19T12:39:35;17.70;99.90
39865;DHT22;25538;48.392;9.976;2022-08-19T12:42:01;17.80;99.90
39865;DHT22;25538;48.392;9.976;2022-08-19T12:44:26;17.80;99.90
39865;DHT22;25538;48.392;9.976;2022-08-19T12:46:52;17.80;99.90
39865;DHT22;25538;48.392;9.976;2022-08-19T12:49:18;17.90;99.90
39865;DHT22;25538;48.392;9.976;2022-08-19T12:51:44;17.90;99.90
39865;DHT22;25538;48.392;9.976;2022-08-19T12:54:12;17.80;99.90
39865;DHT22;25538;48.392;9.976;2022-08-19T12:56:38;17.70;99.90
39865;DHT22;25538;48.392;9.976;2022-08-19T12:59:04;17.80;99.90
39865;DHT22;25538;48.392;9.976;2022-08-19T13:01:30;18.00;99.90
39865;DHT22;25538;48.392;9.976;2022-08-19T13:03:59;18.10;99.90
39865;DHT22;25538;48.392;9.976;2022-08-19T13:06:26;18.00;99.90
39865;DHT22;25538;48.392;9.976;2022-08-19T13:08:52;17.90;99.90
39865;DHT22;25538;48.392;9.976;2022-08-19T13:11:20;17.90;99.90
39865;DHT22;25538;48.392;9.976;2022-08-19T13:13:48;17.90;99.90
39865;DHT22;25538;48.392;9.976;2022-08-19T13:16:16;17.90;99.90
39865;DHT22;25538;48.392;9.976;2022-08-19T13:18:46;17.90;99.90
39865;DHT22;25538;48.392;9.976;2022-08-19T13:21:19;17.90;99.90
39865;DHT22;25538;48.392;9.976;2022-08-19T13:23:46;18.00;99.90
39865;DHT22;25538;48.392;9.976;2022-08-19T13:26:13;18.00;99.90
39865;DHT22;25538;48.392;9.976;2022-08-19T13:28:40;18.00;99.90
39865;DHT22;25538;48.392;9.976;2022-08-19T13:31:41;17.90;99.90
39865;DHT22;25538;48.392;9.976;2022-08-19T13:34:32;17.80;99.90
39865;DHT22;25538;48.392;9.976;2022-08-19T13:37:00;17.80;99.90
39865;DHT22;25538;48.392;9.976;2022-08-19T13:39:30;17.70;99.90
39865;DHT22;25538;48.392;9.976;2022-08-19T13:41:56;17.80;99.90
39865;DHT22;25538;48.392;9.976;2022-08-19T13:44:22;17.70;99.90
39865;DHT22;25538;48.392;9.976;2022-08-19T13:46:49;17.60;99.90
39865;DHT22;25538;48.392;9.976;2022-08-19T13:49:16;17.60;99.90
39865;DHT22;25538;48.392;9.976;2022-08-19T13:51:43;17.60;99.90
39865;DHT22;25538;48.392;9.976;2022-08-19T13:54:10;17.60;99.90
39865;DHT22;25538;48.392;9.976;2022-08-19T13:56:41;17.60;99.90
39865;DHT22;25538;48.392;9.976;2022-08-19T13:59:07;17.70;99.90
39865;DHT22;25538;48.392;9.976;2022-08-19T14:01:33;17.70;99.90
39865;DHT22;25538;48.392;9.976;2022-08-19T14:04:01;17.70;99.90
39865;DHT22;25538;48.392;9.976;2022-08-19T14:06:26;17.60;99.90
39865;DHT22;25538;48.392;9.976;2022-08-19T14:08:52;17.60;99.90
39865;DHT22;25538;48.392;9.976;2022-08-19T14:11:18;17.70;99.90
39865;DHT22;25538;48.392;9.976;2022-08-19T14:13:44;17.80;99.90
39865;DHT22;25538;48.392;9.976;2022-08-19T14:16:12;17.90;99.90
39865;DHT22;25538;48.392;9.976;2022-08-19T14:18:38;17.90;99.90
39865;DHT22;25538;48.392;9.976;2022-08-19T14:21:05;17.90;99.90
39865;DHT22;25538;48.392;9.976;2022-08-19T14:23:33;17.90;99.90
39865;DHT22;25538;48.392;9.976;2022-08-19T14:26:12;18.00;99.90
39865;DHT22;25538;48.392;9.976;2022-08-19T14:28:39;17.90;99.90
39865;DHT22;25538;48.392;9.976;2022-08-19T14:31:06;17.80;99.90
39865;DHT22;25538;48.392;9.976;2022-08-19T14:33:32;17.90;99.90
39865;DHT22;25538;48.392;9.976;2022-08-19T14:35:58;17.90;99.90
39865;DHT22;25538;48.392;9.976;2022-08-19T14:38:26;17.90;99.90
39865;DHT22;25538;48.392;9.976;2022-08-19T14:40:52;17.90;99.90
39865;DHT22;25538;48.392;9.976;2022-08-19T14:43:18;17.80;99.90
39865;DHT22;25538;48.392;9.976;2022-08-19T14:45:45;17.80;99.90
39865;DHT22;25538;48.392;9.976;2022-08-19T14:48:11;17.80;99.90
39865;DHT22;25538;48.392;9.976;2022-08-19T14:50:36;17.80;99.90
39865;DHT22;25538;48.392;9.976;2022-08-19T14:53:07;17.90;99.90
39865;DHT22;25538;48.392;9.976;2022-08-19T14:55:34;17.90;99.90
39865;DHT22;25538;48.392;9.976;2022-08-19T14:58:01;17.90;99.90
39865;DHT22;25538;48.392;9.976;2022-08-19T15:00:27;17.90;99.90
39865;DHT22;25538;48.392;9.976;2022-08-19T15:02:53;17.80;99.90
39865;DHT22;25538;48.392;9.976;2022-08-19T15:05:20;17.90;99.90
39865;DHT22;25538;48.392;9.976;2022-08-19T15:07:46;17.90;99.90
39865;DHT22;25538;48.392;9.976;2022-08-19T15:10:14;17.90;99.90
39865;DHT22;25538;48.392;9.976;2022-08-19T15:12:40;17.90;99.90
39865;DHT22;25538;48.392;9.976;2022-08-19T15:15:11;17.90;99.90
39865;DHT22;25538;48.392;9.976;2022-08-19T15:17:41;17.90;99.90
39865;DHT22;25538;48.392;9.976;2022-08-19T15:20:08;17.90;99.90
39865;DHT22;25538;48.392;9.976;2022-08-19T15:22:34;18.00;99.90
39865;DHT22;25538;48.392;9.976;2022-08-19T15:25:02;18.10;99.90
39865;DHT22;25538;48.392;9.976;2022-08-19T15:27:28;18.20;99.90
39865;DHT22;25538;48.392;9.976;2022-08-19T15:29:54;18.20;99.90
39865;DHT22;25538;48.392;9.976;2022-08-19T15:32:20;18.10;99.90
39865;DHT22;25538;48.392;9.976;2022-08-19T15:34:46;18.00;99.90
39865;DHT22;25538;48.392;9.976;2022-08-19T15:37:14;18.00;99.90
39865;DHT22;25538;48.392;9.976;2022-08-19T15:39:40;17.90;99.90
39865;DHT22;25538;48.392;9.976;2022-08-19T15:42:06;17.80;99.90
39865;DHT22;25538;48.392;9.976;2022-08-19T15:44:33;17.80;99.90
39865;DHT22;25538;48.392;9.976;2022-08-19T15:46:59;17.80;99.90
39865;DHT22;25538;48.392;9.976;2022-08-19T15:49:25;17.70;99.90
39865;DHT22;25538;48.392;9.976;2022-08-19T15:51:51;17.70;99.90
39865;DHT22;25538;48.392;9.976;2022-08-19T15:54:22;17.60;99.90